Time;durP1;ratioP1;P1;durP2;ratioP2;P2;SDS_P1;SDS_P2;PMS_P1;PMS_P2;Temp;Humidity;BMP_temperature;BMP_pressure;BME280_temperature;BME280_humidity;BME280_pressure;Samples;Min_cycle;Max_cycle;Signal;HPM_P1;HPM_P2
2022/05/26 00:00:09;;;;;;;0.37;0.37;;;15.00;99.90;;;;;;4401815;32;20133;-72
2022/05/26 00:02:34;;;;;;;0.32;0.32;;;15.10;99.90;;;;;;4418040;32;20596;-71
2022/05/26 00:05:00;;;;;;;0.40;0.40;;;15.20;99.90;;;;;;4425103;32;20061;-71
2022/05/26 00:07:25;;;;;;;0.28;0.28;;;15.20;99.90;;;;;;4424279;32;20401;-71
2022/05/26 00:09:50;;;;;;;0.30;0.30;;;15.20;99.90;;;;;;4425459;32;20100;-71
2022/05/26 00:12:19;;;;;;;0.40;0.40;;;15.20;99.90;;;;;;4423134;32;20089;-71
2022/05/26 00:14:45;;;;;;;0.82;0.80;;;15.10;99.90;;;;;;4422112;32;20062;-71
2022/05/26 00:17:10;;;;;;;0.30;0.30;;;15.10;99.90;;;;;;4423712;32;20072;-71
2022/05/26 00:19:36;;;;;;;0.50;0.50;;;15.20;99.90;;;;;;4421848;32;20065;-71
2022/05/26 00:22:02;;;;;;;0.52;0.52;;;15.20;99.90;;;;;;4421939;32;20065;-71
2022/05/26 00:24:28;;;;;;;0.40;0.40;;;15.30;99.90;;;;;;4425352;32;20114;-71
2022/05/26 00:26:53;;;;;;;0.50;0.50;;;15.30;99.90;;;;;;4421874;32;20479;-71
2022/05/26 00:29:19;;;;;;;0.30;0.30;;;15.30;99.90;;;;;;4402292;32;20069;-72
2022/05/26 00:31:45;;;;;;;2.20;0.40;;;15.20;99.90;;;;;;4410924;32;20387;-71
2022/05/26 00:34:10;;;;;;;0.75;0.57;;;15.20;99.90;;;;;;4422993;32;20108;-71
2022/05/26 00:36:40;;;;;;;0.37;0.37;;;15.20;99.90;;;;;;4424499;32;20089;-71
2022/05/26 00:39:23;;;;;;;0.40;0.40;;;15.20;99.90;;;;;;4423147;32;20112;-71
2022/05/26 00:41:55;;;;;;;0.20;0.20;;;15.10;99.90;;;;;;4421431;32;20077;-71
2022/05/26 00:44:21;;;;;;;0.40;0.40;;;15.00;99.90;;;;;;4422421;32;20608;-71
2022/05/26 00:47:09;;;;;;;0.30;0.30;;;15.10;99.90;;;;;;4422458;32;20053;-71
2022/05/26 00:49:43;;;;;;;0.40;0.40;;;15.20;99.90;;;;;;4425266;32;20516;-71
2022/05/26 00:52:14;;;;;;;1.08;0.88;;;15.20;99.90;;;;;;4422706;32;20081;-71
2022/05/26 00:54:43;;;;;;;0.30;0.30;;;15.20;99.90;;;;;;4424705;32;20761;-71
2022/05/26 00:57:15;;;;;;;0.40;0.40;;;15.20;99.90;;;;;;4421038;32;20604;-71
2022/05/26 01:00:02;;;;;;;0.52;0.52;;;15.20;99.90;;;;;;4404188;32;20061;-72
2022/05/26 01:02:34;;;;;;;0.40;0.40;;;15.20;99.90;;;;;;4414139;32;20224;-71
2022/05/26 01:05:03;;;;;;;0.40;0.40;;;15.20;99.90;;;;;;4423597;32;20082;-71
2022/05/26 01:07:33;;;;;;;0.65;0.52;;;15.20;99.90;;;;;;4422980;32;20102;-71
2022/05/26 01:09:59;;;;;;;0.40;0.40;;;15.20;99.90;;;;;;4423906;32;20112;-71
2022/05/26 01:12:24;;;;;;;0.20;0.20;;;15.20;99.90;;;;;;4423343;32;20088;-71
2022/05/26 01:14:55;;;;;;;0.30;0.30;;;15.20;99.90;;;;;;4423525;32;20112;-71
2022/05/26 01:17:41;;;;;;;;;;;15.20;99.90;;;;;;4425211;32;20077;-71
2022/05/26 01:20:27;;;;;;;0.30;0.30;;;15.20;99.90;;;;;;4408633;32;20040;-71
2022/05/26 01:23:24;;;;;;;0.40;0.40;;;15.30;99.90;;;;;;4410789;32;20122;-71
2022/05/26 01:26:17;;;;;;;0.40;0.40;;;15.20;99.90;;;;;;4413679;32;20085;-71
2022/05/26 01:29:12;;;;;;;0.40;0.40;;;15.20;99.90;;;;;;4397715;32;20563;-71
2022/05/26 01:31:51;;;;;;;0.30;0.30;;;15.30;99.90;;;;;;4400836;32;20131;-71
2022/05/26 01:34:44;;;;;;;0.35;0.35;;;15.30;99.90;;;;;;4422165;32;20073;-71
2022/05/26 01:37:45;;;;;;;0.30;0.30;;;15.30;99.90;;;;;;4411502;32;20481;-71
2022/05/26 01:40:31;;;;;;;0.30;0.30;;;15.20;99.90;;;;;;4412031;32;20117;-71
2022/05/26 01:43:28;;;;;;;0.40;0.40;;;15.20;99.90;;;;;;4412308;32;20054;-71
2022/05/26 01:46:01;;;;;;;0.40;0.40;;;15.30;99.90;;;;;;4410834;32;20415;-71
2022/05/26 01:48:42;;;;;;;0.32;0.32;;;15.30;99.90;;;;;;4421216;32;20072;-71
2022/05/26 01:51:27;;;;;;;0.32;0.32;;;15.30;99.90;;;;;;4422354;32;20419;-72
2022/05/26 01:54:21;;;;;;;0.65;0.52;;;15.40;99.90;;;;;;4420468;32;20552;-71
2022/05/26 01:57:01;;;;;;;0.35;0.35;;;15.40;99.90;;;;;;4410711;32;20524;-71
2022/05/26 01:59:31;;;;;;;0.40;0.40;;;15.40;99.90;;;;;;4402564;32;20568;-71
2022/05/26 02:02:18;;;;;;;;;;;15.40;99.90;;;;;;4410774;32;20061;-71
2022/05/26 02:04:48;;;;;;;0.40;0.40;;;15.40;99.90;;;;;;4423538;32;20433;-71
2022/05/26 02:07:21;;;;;;;0.35;0.35;;;15.40;99.90;;;;;;4421147;32;20090;-71
2022/05/26 02:09:48;;;;;;;0.20;0.20;;;15.50;99.90;;;;;;4423084;32;20086;-71
2022/05/26 02:12:23;;;;;;;0.45;0.40;;;15.50;99.90;;;;;;4421686;32;20053;-71
2022/05/26 02:14:55;;;;;;;0.30;0.30;;;15.50;99.60;;;;;;4422920;32;20056;-71
2022/05/26 02:17:29;;;;;;;0.30;0.30;;;15.60;99.30;;;;;;4420582;32;20094;-71
2022/05/26 02:20:07;;;;;;;0.40;0.40;;;15.60;99.10;;;;;;4425429;32;20078;-70
2022/05/26 02:22:41;;;;;;;7.53;0.65;;;15.60;99.20;;;;;;4422200;32;20081;-70
2022/05/26 02:25:11;;;;;;;0.30;0.30;;;15.60;98.70;;;;;;4423510;32;20103;-71
2022/05/26 02:27:38;;;;;;;0.30;0.30;;;15.70;98.70;;;;;;4415760;32;20116;-71
2022/05/26 02:30:05;;;;;;;0.50;0.50;;;15.70;98.50;;;;;;4403742;32;20066;-71
2022/05/26 02:32:35;;;;;;;0.30;0.30;;;15.70;98.40;;;;;;4415433;32;20058;-71
2022/05/26 02:35:06;;;;;;;0.50;0.50;;;15.70;98.40;;;;;;4421429;32;20517;-70
2022/05/26 02:37:33;;;;;;;0.30;0.30;;;15.80;98.60;;;;;;4421629;32;20081;-70
2022/05/26 02:39:59;;;;;;;0.30;0.30;;;15.80;98.30;;;;;;4422768;32;20073;-71
2022/05/26 02:42:25;;;;;;;0.28;0.28;;;15.90;98.10;;;;;;4422911;32;20548;-71
2022/05/26 02:44:52;;;;;;;1.27;0.45;;;16.00;98.00;;;;;;4422052;32;20068;-70
2022/05/26 02:47:46;;;;;;;0.20;0.20;;;16.00;97.80;;;;;;4422789;32;20104;-70
2022/05/26 02:50:45;;;;;;;0.28;0.28;;;16.10;97.90;;;;;;4412757;32;20058;-70
2022/05/26 02:53:23;;;;;;;0.80;0.70;;;16.10;98.00;;;;;;4412221;32;20057;-70
2022/05/26 02:56:11;;;;;;;0.30;0.30;;;16.10;97.90;;;;;;4422362;32;20120;-70
2022/05/26 02:58:42;;;;;;;0.30;0.30;;;16.10;97.90;;;;;;4397465;32;20108;-70
2022/05/26 03:01:32;;;;;;;0.28;0.28;;;16.10;97.70;;;;;;4404292;32;20077;-71
2022/05/26 03:04:12;;;;;;;0.30;0.30;;;16.10;97.80;;;;;;4409923;32;20113;-70
2022/05/26 03:06:45;;;;;;;0.20;0.20;;;16.20;97.90;;;;;;4422168;32;20591;-71
2022/05/26 03:09:10;;;;;;;0.40;0.40;;;16.20;98.00;;;;;;4424648;32;20065;-71
2022/05/26 03:11:49;;;;;;;0.28;0.28;;;16.10;98.20;;;;;;4423208;32;20085;-71
2022/05/26 03:14:16;;;;;;;0.40;0.40;;;16.20;98.30;;;;;;4419397;32;20149;-71
2022/05/26 03:16:42;;;;;;;0.30;0.30;;;16.20;97.90;;;;;;4421594;32;20144;-71
2022/05/26 03:19:08;;;;;;;0.30;0.30;;;16.20;97.90;;;;;;4426193;32;20460;-70
2022/05/26 03:21:34;;;;;;;0.30;0.30;;;16.20;97.70;;;;;;4425901;32;20069;-70
2022/05/26 03:24:00;;;;;;;0.20;0.20;;;16.20;98.00;;;;;;4425810;32;20069;-70
2022/05/26 03:26:25;;;;;;;0.30;0.30;;;16.20;97.90;;;;;;4422629;32;20123;-71
2022/05/26 03:28:51;;;;;;;0.20;0.20;;;16.20;98.00;;;;;;4407055;32;20136;-70
2022/05/26 03:31:16;;;;;;;0.57;0.57;;;16.20;97.90;;;;;;4407940;32;20116;-71
2022/05/26 03:40:46;;;;;;;0.47;0.47;;;16.20;98.10;;;;;;4409425;32;20076;-71
2022/05/26 03:41:14;;;;;;;0.32;0.32;;;16.10;98.30;;;;;;4412590;32;20556;-70
2022/05/26 03:41:59;;;;;;;0.30;0.30;;;16.10;98.20;;;;;;4412402;32;20086;-71
2022/05/26 03:44:27;;;;;;;0.32;0.32;;;16.10;98.30;;;;;;4424916;32;20085;-71
2022/05/26 03:46:53;;;;;;;0.20;0.20;;;16.10;98.40;;;;;;4422876;32;20162;-71
2022/05/26 03:49:19;;;;;;;0.30;0.30;;;16.10;98.50;;;;;;4425159;32;20061;-71
2022/05/26 03:51:45;;;;;;;0.40;0.40;;;16.10;98.70;;;;;;4424573;32;20082;-71
2022/05/26 03:54:11;;;;;;;0.45;0.45;;;16.10;98.70;;;;;;4424562;32;20509;-71
2022/05/26 03:56:37;;;;;;;0.30;0.30;;;16.10;99.10;;;;;;4425004;32;20074;-71
2022/05/26 03:59:02;;;;;;;0.20;0.20;;;16.10;99.00;;;;;;4406803;32;20057;-71
2022/05/26 04:01:28;;;;;;;0.40;0.40;;;16.10;99.10;;;;;;4408142;32;20065;-71
2022/05/26 04:03:55;;;;;;;0.73;0.45;;;16.10;99.20;;;;;;4425340;32;20057;-71
2022/05/26 04:06:21;;;;;;;0.30;0.30;;;16.00;99.40;;;;;;4422137;32;20107;-71
2022/05/26 04:08:47;;;;;;;0.30;0.30;;;16.00;99.50;;;;;;4424682;32;20078;-71
2022/05/26 04:11:13;;;;;;;0.20;0.20;;;16.10;99.70;;;;;;4424588;32;20085;-71
2022/05/26 04:13:38;;;;;;;0.35;0.35;;;16.00;99.90;;;;;;4425993;32;20121;-71
2022/05/26 04:16:04;;;;;;;0.40;0.40;;;16.00;99.90;;;;;;4422969;32;20422;-71
2022/05/26 04:18:30;;;;;;;0.50;0.50;;;16.10;99.90;;;;;;4424279;32;20101;-72
2022/05/26 04:21:04;;;;;;;0.30;0.30;;;16.10;99.90;;;;;;4423963;32;20999;-72
2022/05/26 04:23:30;;;;;;;0.30;0.30;;;16.10;99.90;;;;;;4423736;32;20070;-71
2022/05/26 04:25:55;;;;;;;0.40;0.40;;;16.10;99.90;;;;;;4424375;32;20057;-71
2022/05/26 04:28:21;;;;;;;0.30;0.30;;;16.10;99.90;;;;;;4410735;32;20061;-71
2022/05/26 04:30:46;;;;;;;0.40;0.40;;;16.10;99.90;;;;;;4402896;32;20438;-71
2022/05/26 04:33:13;;;;;;;0.37;0.37;;;16.10;99.90;;;;;;4422623;32;20066;-70
2022/05/26 04:35:38;;;;;;;0.43;0.43;;;16.10;99.90;;;;;;4424170;32;20065;-71
2022/05/26 04:38:03;;;;;;;0.88;0.50;;;16.10;99.90;;;;;;4423902;32;20073;-70
2022/05/26 04:40:29;;;;;;;0.20;0.20;;;16.10;99.90;;;;;;4424910;32;20485;-71
2022/05/26 04:42:54;;;;;;;1.37;0.52;;;16.10;99.90;;;;;;4427286;32;20120;-71
2022/05/26 04:45:20;;;;;;;0.30;0.30;;;16.10;99.90;;;;;;4424976;32;20076;-71
2022/05/26 04:47:46;;;;;;;0.30;0.30;;;16.20;99.90;;;;;;4424106;32;20061;-71
2022/05/26 04:50:11;;;;;;;0.40;0.40;;;16.30;99.90;;;;;;4423134;32;20229;-71
2022/05/26 04:52:37;;;;;;;0.40;0.40;;;16.30;99.90;;;;;;4423519;32;20070;-71
2022/05/26 04:55:04;;;;;;;0.30;0.30;;;16.30;99.90;;;;;;4423337;32;20078;-71
2022/05/26 04:57:30;;;;;;;0.30;0.30;;;16.30;99.90;;;;;;4420302;32;20359;-70
2022/05/26 04:59:55;;;;;;;0.30;0.30;;;16.40;99.90;;;;;;4401904;32;20125;-72
2022/05/26 05:02:22;;;;;;;9.13;0.60;;;16.30;99.90;;;;;;4405353;32;20083;-70
2022/05/26 05:04:48;;;;;;;0.20;0.20;;;16.30;99.90;;;;;;4413675;32;20101;-70
2022/05/26 05:07:17;;;;;;;0.40;0.40;;;16.30;99.90;;;;;;4413129;32;20117;-70
2022/05/26 05:09:43;;;;;;;0.60;0.60;;;16.20;99.90;;;;;;4412563;32;20177;-71
2022/05/26 05:12:12;;;;;;;0.30;0.30;;;16.20;99.90;;;;;;4412250;32;20291;-69
2022/05/26 05:14:42;;;;;;;21.10;0.95;;;16.20;99.90;;;;;;4416169;32;20135;-70
2022/05/26 05:17:08;;;;;;;0.30;0.30;;;16.20;99.90;;;;;;4415253;32;20081;-70
2022/05/26 05:19:34;;;;;;;0.40;0.40;;;16.20;99.90;;;;;;4413621;32;20128;-69
2022/05/26 05:22:08;;;;;;;0.30;0.30;;;16.20;99.90;;;;;;4413775;32;20093;-70
2022/05/26 05:24:47;;;;;;;0.40;0.40;;;16.20;99.90;;;;;;4415047;32;20066;-70
2022/05/26 05:27:28;;;;;;;0.30;0.30;;;16.20;99.90;;;;;;4420167;32;20054;-70
2022/05/26 05:29:58;;;;;;;0.50;0.50;;;16.30;99.90;;;;;;4398454;32;20076;-70
2022/05/26 05:32:27;;;;;;;1.25;0.95;;;16.30;99.90;;;;;;4406712;32;20119;-70
2022/05/26 05:35:02;;;;;;;0.55;0.55;;;16.40;99.90;;;;;;4417563;32;20086;-71
2022/05/26 05:37:30;;;;;;;0.30;0.30;;;16.40;99.90;;;;;;4423538;32;20061;-70
2022/05/26 05:39:56;;;;;;;0.37;0.37;;;16.40;99.90;;;;;;4422173;32;20580;-70
2022/05/26 05:42:22;;;;;;;0.47;0.47;;;16.30;99.90;;;;;;4417559;32;20093;-70
2022/05/26 05:44:47;;;;;;;0.40;0.40;;;16.30;99.90;;;;;;4413415;32;20082;-69
2022/05/26 05:47:13;;;;;;;0.50;0.50;;;16.40;99.90;;;;;;4421278;32;20127;-70
2022/05/26 05:49:38;;;;;;;0.22;0.22;;;16.40;99.90;;;;;;4421654;32;20073;-69
2022/05/26 05:52:10;;;;;;;0.37;0.37;;;16.50;99.90;;;;;;4423212;32;20061;-70
2022/05/26 05:54:36;;;;;;;0.30;0.30;;;16.50;99.90;;;;;;4423612;32;20062;-69
2022/05/26 05:57:02;;;;;;;0.40;0.40;;;16.50;99.90;;;;;;4419546;32;20105;-71
2022/05/26 05:59:27;;;;;;;0.30;0.30;;;16.60;99.90;;;;;;4402038;32;20560;-70
2022/05/26 06:01:54;;;;;;;0.30;0.30;;;16.60;99.90;;;;;;4401809;32;20140;-71
2022/05/26 06:04:19;;;;;;;0.40;0.40;;;16.60;99.90;;;;;;4414779;32;20464;-70
2022/05/26 06:06:45;;;;;;;0.30;0.30;;;16.50;99.90;;;;;;4420805;32;20075;-71
2022/05/26 06:09:13;;;;;;;0.85;0.37;;;16.50;99.90;;;;;;4423372;32;20073;-71
2022/05/26 06:11:40;;;;;;;0.98;0.90;;;16.40;99.90;;;;;;4421396;32;20061;-71
2022/05/26 06:14:06;;;;;;;0.40;0.40;;;16.50;99.90;;;;;;4412508;32;20145;-71
2022/05/26 06:16:32;;;;;;;0.40;0.40;;;16.50;99.90;;;;;;4415442;32;20511;-71
2022/05/26 06:18:58;;;;;;;0.50;0.50;;;16.60;99.90;;;;;;4420424;32;20057;-71
2022/05/26 06:21:24;;;;;;;0.50;0.50;;;16.70;99.90;;;;;;4420531;32;20513;-71
2022/05/26 06:23:51;;;;;;;0.90;0.47;;;16.70;99.90;;;;;;4421431;32;20086;-71
2022/05/26 06:26:17;;;;;;;0.95;0.90;;;16.80;99.90;;;;;;4423049;32;20085;-70
2022/05/26 06:29:50;;;;;;;0.60;0.60;;;16.90;99.90;;;;;;4407428;32;20062;-72
2022/05/26 06:31:28;;;;;;;0.30;0.30;;;16.90;99.90;;;;;;4387732;32;20069;-72
2022/05/26 06:39:13;;;;;;;0.80;0.80;;;16.90;99.90;;;;;;4421994;32;20597;-72
2022/05/26 06:42:11;;;;;;;0.50;0.50;;;17.00;99.90;;;;;;4421317;32;20118;-71
2022/05/26 06:44:24;;;;;;;0.45;0.45;;;16.90;99.90;;;;;;4399030;32;20076;-71
2022/05/26 06:46:50;;;;;;;0.40;0.40;;;16.90;99.90;;;;;;4416953;32;20057;-71
2022/05/26 06:49:16;;;;;;;1.92;0.47;;;16.90;99.90;;;;;;4421433;32;20089;-71
2022/05/26 06:51:43;;;;;;;0.40;0.40;;;16.90;99.90;;;;;;4421889;32;20081;-71
2022/05/26 06:54:09;;;;;;;0.40;0.40;;;17.00;99.90;;;;;;4422777;32;20116;-71
2022/05/26 06:56:35;;;;;;;1.35;0.57;;;17.00;99.90;;;;;;4425478;32;20079;-71
2022/05/26 06:59:00;;;;;;;0.50;0.50;;;17.00;99.90;;;;;;4406703;32;20136;-72
2022/05/26 07:01:26;;;;;;;0.40;0.40;;;17.00;99.90;;;;;;4401486;32;20065;-72
2022/05/26 07:03:51;;;;;;;1.30;0.55;;;17.10;99.90;;;;;;4414238;32;20580;-71
2022/05/26 07:06:23;;;;;;;0.40;0.40;;;17.20;99.90;;;;;;4421997;32;20078;-71
2022/05/26 07:08:49;;;;;;;0.20;0.20;;;17.20;99.90;;;;;;4423218;32;20615;-71
2022/05/26 07:11:16;;;;;;;0.30;0.30;;;17.20;99.90;;;;;;4427041;32;20095;-71
2022/05/26 07:13:42;;;;;;;0.30;0.30;;;17.20;99.90;;;;;;4415435;32;20214;-71
2022/05/26 07:16:10;;;;;;;0.40;0.40;;;17.10;99.90;;;;;;4416199;32;20094;-72
2022/05/26 07:18:36;;;;;;;0.40;0.40;;;17.10;99.90;;;;;;4423508;32;20073;-71
2022/05/26 07:21:03;;;;;;;0.43;0.43;;;17.00;99.90;;;;;;4423732;32;20463;-70
2022/05/26 07:23:29;;;;;;;0.30;0.30;;;17.00;99.90;;;;;;4422305;32;20088;-71
2022/05/26 07:25:55;;;;;;;0.30;0.30;;;16.90;99.90;;;;;;4422298;32;20066;-71
2022/05/26 07:28:23;;;;;;;6.20;1.37;;;16.80;99.90;;;;;;4413478;32;20263;-72
2022/05/26 07:30:49;;;;;;;1.85;0.45;;;16.50;99.90;;;;;;4399516;32;20077;-73
2022/05/26 07:33:15;;;;;;;0.43;0.43;;;16.20;99.90;;;;;;4412322;32;20065;-71
2022/05/26 07:35:40;;;;;;;1.45;0.68;;;15.90;99.90;;;;;;4419317;32;20426;-71
2022/05/26 07:41:24;;;;;;;0.30;0.30;;;15.40;99.90;;;;;;4412798;32;20081;-70
2022/05/26 07:43:38;;;;;;;0.37;0.37;;;15.30;99.90;;;;;;4400436;32;20117;-72
2022/05/26 07:46:04;;;;;;;1.62;0.55;;;15.30;99.90;;;;;;4415056;32;20061;-72
2022/05/26 07:48:30;;;;;;;0.43;0.43;;;15.10;99.90;;;;;;4422135;32;20435;-71
2022/05/26 07:50:55;;;;;;;0.22;0.22;;;15.10;99.90;;;;;;4421032;32;20132;-71
2022/05/26 07:53:21;;;;;;;2.65;0.55;;;15.10;99.90;;;;;;4423163;32;20414;-71
2022/05/26 07:55:46;;;;;;;0.62;0.62;;;15.10;99.90;;;;;;4421723;32;20133;-71
2022/05/26 07:58:12;;;;;;;0.60;0.60;;;15.10;99.90;;;;;;4413472;32;20068;-71
2022/05/26 08:00:39;;;;;;;0.35;0.35;;;15.20;99.90;;;;;;4400193;32;20574;-71
2022/05/26 08:03:05;;;;;;;1.02;0.35;;;15.20;99.90;;;;;;4409848;32;20163;-71
2022/05/26 08:05:32;;;;;;;0.50;0.50;;;15.20;99.90;;;;;;4421151;32;20085;-71
2022/05/26 08:07:57;;;;;;;0.47;0.47;;;15.30;99.90;;;;;;4423832;32;20057;-71
2022/05/26 08:10:24;;;;;;;2.55;1.17;;;15.30;99.90;;;;;;4423917;32;20069;-71
2022/05/26 08:12:49;;;;;;;0.80;0.47;;;15.40;99.90;;;;;;4418268;32;20255;-71
2022/05/26 08:15:15;;;;;;;0.40;0.40;;;15.50;99.90;;;;;;4413511;32;20148;-71
2022/05/26 08:17:40;;;;;;;0.70;0.40;;;15.60;99.90;;;;;;4422998;32;20481;-71
2022/05/26 08:20:07;;;;;;;0.40;0.40;;;15.70;99.90;;;;;;4420813;32;20110;-71
2022/05/26 08:22:32;;;;;;;0.50;0.50;;;15.80;99.90;;;;;;4421012;32;20528;-71
2022/05/26 08:24:58;;;;;;;0.62;0.43;;;16.00;99.90;;;;;;4424096;32;20073;-71
2022/05/26 08:27:25;;;;;;;0.37;0.37;;;16.10;99.90;;;;;;4419094;32;20085;-70
2022/05/26 08:29:54;;;;;;;0.98;0.88;;;16.20;99.90;;;;;;4403618;32;20082;-71
2022/05/26 08:32:21;;;;;;;0.40;0.40;;;16.20;99.90;;;;;;4403923;32;20073;-72
2022/05/26 08:34:47;;;;;;;5.25;1.95;;;16.30;99.90;;;;;;4416794;32;20118;-70
2022/05/26 08:37:18;;;;;;;0.50;0.50;;;16.40;99.90;;;;;;4422887;32;20082;-71
2022/05/26 08:39:44;;;;;;;0.35;0.35;;;16.70;99.90;;;;;;4423050;32;20065;-72
2022/05/26 08:42:24;;;;;;;0.30;0.30;;;16.90;99.90;;;;;;4420327;32;20090;-72
2022/05/26 08:44:53;;;;;;;0.37;0.37;;;17.20;99.90;;;;;;4413668;32;20564;-72
2022/05/26 08:47:20;;;;;;;0.57;0.57;;;17.40;99.90;;;;;;4418251;32;20136;-71
2022/05/26 08:49:56;;;;;;;0.30;0.30;;;17.60;99.90;;;;;;4421305;32;20113;-71
2022/05/26 08:52:44;;;;;;;0.40;0.40;;;17.60;99.90;;;;;;4422377;32;20156;-71
2022/05/26 08:55:15;;;;;;;0.30;0.30;;;17.60;99.90;;;;;;4412360;32;20093;-71
2022/05/26 08:57:49;;;;;;;0.65;0.65;;;17.90;99.90;;;;;;4417572;32;20109;-71
2022/05/26 09:00:18;;;;;;;0.80;0.80;;;17.90;99.90;;;;;;4400989;32;20139;-71
2022/05/26 09:02:45;;;;;;;0.40;0.40;;;18.00;99.90;;;;;;4407143;32;20477;-72
2022/05/26 09:05:16;;;;;;;0.30;0.30;;;18.10;99.90;;;;;;4418617;32;20166;-70
2022/05/26 09:12:55;;;;;;;0.30;0.30;;;18.40;99.90;;;;;;4411811;32;20576;-71
2022/05/26 09:13:49;;;;;;;0.22;0.22;;;18.60;99.90;;;;;;4400360;32;20109;-70
2022/05/26 09:16:15;;;;;;;0.30;0.30;;;18.80;99.90;;;;;;4416537;32;20077;-70
2022/05/26 09:18:41;;;;;;;0.30;0.30;;;18.80;99.90;;;;;;4422961;32;20089;-72
2022/05/26 09:21:28;;;;;;;0.47;0.47;;;18.90;99.90;;;;;;4424738;32;20133;-72
2022/05/26 09:24:24;;;;;;;0.20;0.20;;;18.70;99.90;;;;;;4423498;32;20464;-71
2022/05/26 09:26:57;;;;;;;0.20;0.20;;;18.60;99.90;;;;;;4407677;32;20092;-71
2022/05/26 09:29:25;;;;;;;1.65;0.55;;;18.70;99.90;;;;;;4402820;32;20081;-71
2022/05/26 09:31:51;;;;;;;0.40;0.40;;;18.90;99.90;;;;;;4401457;32;20081;-71
2022/05/26 09:34:20;;;;;;;0.20;0.20;;;19.00;99.90;;;;;;4412309;32;20120;-70
2022/05/26 09:36:49;;;;;;;0.30;0.30;;;19.20;99.90;;;;;;4420192;32;20129;-71
2022/05/26 09:39:21;;;;;;;0.40;0.40;;;19.40;99.90;;;;;;4422097;32;20074;-71
2022/05/26 09:41:51;;;;;;;0.30;0.30;;;19.20;99.90;;;;;;4422652;32;20536;-71
2022/05/26 09:44:24;;;;;;;0.40;0.40;;;19.00;99.90;;;;;;4411211;32;20073;-70
2022/05/26 09:46:52;;;;;;;0.37;0.37;;;19.00;99.90;;;;;;4418462;32;20093;-71
2022/05/26 09:49:23;;;;;;;0.30;0.30;;;19.30;99.90;;;;;;4424886;32;20077;-71
2022/05/26 09:51:49;;;;;;;0.20;0.20;;;19.70;99.90;;;;;;4421767;32;20065;-71
2022/05/26 09:54:33;;;;;;;0.20;0.20;;;19.60;99.90;;;;;;4422547;32;20065;-71
2022/05/26 09:57:12;;;;;;;0.20;0.20;;;19.80;99.90;;;;;;4421292;32;20541;-71
2022/05/26 09:59:39;;;;;;;0.40;0.40;;;19.50;99.90;;;;;;4403144;32;20077;-70
2022/05/26 10:02:16;;;;;;;0.30;0.30;;;19.40;99.90;;;;;;4398718;32;20065;-71
2022/05/26 10:04:55;;;;;;;0.30;0.30;;;19.50;99.90;;;;;;4416666;32;20069;-70
2022/05/26 10:07:36;;;;;;;0.30;0.30;;;19.80;99.90;;;;;;4406492;32;20164;-70
2022/05/26 10:10:07;;;;;;;0.30;0.30;;;20.00;99.90;;;;;;4422969;32;20093;-71
2022/05/26 10:13:02;;;;;;;0.40;0.40;;;20.30;99.90;;;;;;4414518;32;20078;-71
2022/05/26 10:15:55;;;;;;;0.40;0.40;;;20.70;99.30;;;;;;4400636;32;20116;-71
2022/05/26 10:18:32;;;;;;;0.43;0.43;;;20.70;99.40;;;;;;4412710;32;20430;-70
2022/05/26 10:21:12;;;;;;;0.30;0.30;;;20.40;99.10;;;;;;4423150;32;20093;-71
2022/05/26 10:23:58;;;;;;;0.25;0.25;;;19.80;99.80;;;;;;4423358;32;20082;-71
2022/05/26 10:26:55;;;;;;;0.40;0.40;;;19.60;99.90;;;;;;4422190;32;20075;-71
2022/05/26 10:29:37;;;;;;;0.30;0.30;;;19.30;99.90;;;;;;4390336;32;20184;-72
2022/05/26 10:32:17;;;;;;;0.52;0.40;;;19.20;99.90;;;;;;4405533;32;20078;-71
2022/05/26 10:34:49;;;;;;;0.30;0.30;;;19.30;99.90;;;;;;4420118;32;20077;-71
2022/05/26 10:37:33;;;;;;;0.30;0.30;;;19.40;99.90;;;;;;4422906;32;20147;-71
2022/05/26 10:40:10;;;;;;;0.30;0.30;;;19.20;99.90;;;;;;4424866;32;20140;-71
2022/05/26 10:42:41;;;;;;;0.50;0.40;;;19.20;99.90;;;;;;4420395;32;20726;-71
2022/05/26 10:45:16;;;;;;;0.40;0.40;;;19.20;99.90;;;;;;4417557;32;20073;-71
2022/05/26 10:47:52;;;;;;;0.30;0.30;;;19.10;99.90;;;;;;4421675;32;20124;-71
2022/05/26 10:50:27;;;;;;;3.60;0.73;;;19.30;99.90;;;;;;4425220;32;20117;-71
2022/05/26 10:53:16;;;;;;;0.65;0.65;;;19.70;99.90;;;;;;4423409;32;20070;-71
2022/05/26 10:56:22;;;;;;;0.30;0.30;;;19.70;99.90;;;;;;4413514;32;20859;-71
2022/05/26 10:58:53;;;;;;;1.25;0.85;;;19.60;99.90;;;;;;4403399;32;20073;-72
2022/05/26 11:01:42;;;;;;;2.10;1.20;;;19.70;99.90;;;;;;4403184;32;20086;-71
2022/05/26 11:04:34;;;;;;;0.55;0.55;;;19.80;99.90;;;;;;4403656;32;20064;-70
2022/05/26 11:07:05;;;;;;;0.30;0.30;;;20.30;99.90;;;;;;4412957;32;20121;-71
2022/05/26 11:09:38;;;;;;;0.40;0.40;;;20.80;99.90;;;;;;4427004;32;20144;-71
2022/05/26 11:12:11;;;;;;;0.20;0.20;;;21.10;99.20;;;;;;4423189;32;20489;-71
2022/05/26 11:17:52;;;;;;;0.30;0.30;;;20.90;98.80;;;;;;4411587;32;20077;-71
2022/05/26 11:20:23;;;;;;;1.55;0.60;;;20.50;98.40;;;;;;4424934;32;20065;-71
2022/05/26 11:22:51;;;;;;;0.40;0.40;;;20.30;99.00;;;;;;4423639;32;20114;-70
2022/05/26 11:25:28;;;;;;;1.75;0.50;;;20.20;98.90;;;;;;4423457;32;20683;-71
2022/05/26 11:28:02;;;;;;;0.40;0.40;;;20.00;99.00;;;;;;4413582;32;20078;-72
2022/05/26 11:36:21;;;;;;;0.47;0.30;;;21.30;98.40;;;;;;4411137;32;20069;-71
2022/05/26 11:38:50;;;;;;;0.47;0.47;;;21.90;97.00;;;;;;4423978;32;20069;-71
2022/05/26 11:41:25;;;;;;;2.40;0.82;;;21.50;96.90;;;;;;4421812;32;20066;-71
2022/05/26 11:44:02;;;;;;;0.28;0.28;;;21.10;97.50;;;;;;4413833;32;20449;-71
2022/05/26 11:46:49;;;;;;;0.60;0.60;;;20.50;97.90;;;;;;4416679;32;20085;-71
2022/05/26 11:49:43;;;;;;;0.30;0.30;;;20.20;98.70;;;;;;4411078;32;20646;-71
2022/05/26 11:52:22;;;;;;;0.30;0.30;;;20.00;99.60;;;;;;4412535;32;20049;-71
2022/05/26 11:55:01;;;;;;;0.50;0.50;;;20.00;99.30;;;;;;4410078;32;20105;-72
2022/05/26 11:57:45;;;;;;;0.43;0.40;;;20.10;99.40;;;;;;4419770;32;20603;-71
2022/05/26 12:00:22;;;;;;;1.95;0.52;;;20.30;99.60;;;;;;4402864;32;20061;-71
2022/05/26 12:03:10;;;;;;;5.07;1.52;;;20.90;98.70;;;;;;4407616;32;20160;-73
2022/05/26 12:05:39;;;;;;;1.10;0.75;;;21.40;97.60;;;;;;4407283;32;20111;-71
2022/05/26 12:08:22;;;;;;;0.30;0.30;;;21.50;97.50;;;;;;4421160;32;20386;-71
2022/05/26 12:11:07;;;;;;;0.20;0.20;;;21.20;97.60;;;;;;4408593;32;20763;-71
2022/05/26 12:13:35;;;;;;;0.20;0.20;;;20.80;97.20;;;;;;4416477;32;20140;-71
2022/05/26 12:16:18;;;;;;;1.00;0.52;;;20.60;97.60;;;;;;4413570;32;20097;-70
2022/05/26 12:19:04;;;;;;;8.93;0.93;;;20.30;97.70;;;;;;4421331;32;20097;-70
2022/05/26 12:21:48;;;;;;;0.20;0.20;;;20.10;97.80;;;;;;4412168;32;20556;-70
2022/05/26 12:24:35;;;;;;;0.20;0.20;;;19.90;98.30;;;;;;4406713;32;20559;-71
2022/05/26 12:27:02;;;;;;;0.20;0.20;;;20.10;98.60;;;;;;4408143;32;20082;-71
2022/05/26 12:29:49;;;;;;;0.40;0.40;;;20.60;97.70;;;;;;4404404;32;20065;-71
2022/05/26 12:32:21;;;;;;;0.22;0.22;;;20.80;97.00;;;;;;4388984;32;20085;-72
2022/05/26 12:35:18;;;;;;;0.20;0.20;;;20.40;97.30;;;;;;4415520;32;20167;-71
2022/05/26 12:38:05;;;;;;;0.40;0.40;;;20.20;98.30;;;;;;4409024;32;20101;-71
2022/05/26 12:40:58;;;;;;;0.20;0.20;;;20.10;98.60;;;;;;4422287;32;20080;-71
2022/05/26 12:44:00;;;;;;;0.47;0.43;;;21.00;96.90;;;;;;4402925;32;20101;-72
2022/05/26 12:46:40;;;;;;;0.30;0.30;;;22.00;95.60;;;;;;4403242;32;21365;-71
2022/05/26 12:49:46;;;;;;;0.23;0.23;;;22.20;94.80;;;;;;4422634;32;20097;-70
2022/05/26 12:52:17;;;;;;;0.20;0.20;;;21.50;95.00;;;;;;4402101;32;20243;-71
2022/05/26 12:54:56;;;;;;;0.20;0.20;;;21.50;95.70;;;;;;4422321;32;20897;-70
2022/05/26 12:57:25;;;;;;;0.20;0.20;;;21.80;95.20;;;;;;4414105;32;20450;-72
2022/05/26 12:59:51;;;;;;;0.28;0.28;;;21.30;95.80;;;;;;4402888;32;20518;-72
2022/05/26 13:02:28;;;;;;;2.00;1.05;;;20.90;96.10;;;;;;4402031;32;20058;-70
2022/05/26 13:04:55;;;;;;;3.30;0.60;;;20.90;96.40;;;;;;4416963;32;20085;-71
2022/05/26 13:07:21;;;;;;;0.30;0.30;;;21.40;96.40;;;;;;4422080;32;20061;-70
2022/05/26 13:09:51;;;;;;;2.08;0.57;;;22.50;94.90;;;;;;4421817;32;20082;-70
2022/05/26 13:12:22;;;;;;;2.45;0.90;;;22.50;93.90;;;;;;4417530;32;20054;-71
2022/05/26 13:14:52;;;;;;;0.57;0.20;;;22.80;93.60;;;;;;4409566;32;20143;-71
2022/05/26 13:17:22;;;;;;;0.25;0.25;;;23.30;92.50;;;;;;4421109;32;20541;-70
2022/05/26 13:19:52;;;;;;;0.35;0.35;;;22.70;92.90;;;;;;4422005;32;20195;-70
2022/05/26 13:22:27;;;;;;;3.08;0.43;;;21.90;94.00;;;;;;4421230;32;20085;-70
2022/05/26 13:24:56;;;;;;;3.90;0.73;;;21.60;94.60;;;;;;4424847;32;20528;-71
2022/05/26 13:27:24;;;;;;;0.40;0.40;;;21.30;94.80;;;;;;4417745;32;20116;-71
2022/05/26 13:29:52;;;;;;;0.20;0.20;;;21.80;94.70;;;;;;4400576;32;20078;-71
2022/05/26 13:33:27;;;;;;;0.20;0.20;;;21.90;93.20;;;;;;4402371;32;20117;-71
2022/05/26 13:35:18;;;;;;;3.45;0.47;;;21.60;93.80;;;;;;4406562;32;20077;-71
2022/05/26 13:37:44;;;;;;;0.20;0.20;;;21.50;94.00;;;;;;4420828;32;20089;-71